sensor_id;sensor_type;location;lat;lon;timestamp;P1;durP1;ratioP1;P2;durP2;ratioP2
69943;SDS011;57257;48.408;-4.498;2023-05-23T00:00:56;6.00;;;1.00;;
69943;SDS011;57257;48.408;-4.498;2023-05-23T00:03:22;0.00;;;0.00;;
69943;SDS011;57257;48.408;-4.498;2023-05-23T00:05:48;3.00;;;0.00;;
69943;SDS011;57257;48.408;-4.498;2023-05-23T00:08:15;1.00;;;1.00;;
69943;SDS011;57257;48.408;-4.498;2023-05-23T00:10:41;6.75;;;0.50;;
69943;SDS011;57257;48.408;-4.498;2023-05-23T00:13:06;3.25;;;1.00;;
69943;SDS011;57257;48.408;-4.498;2023-05-23T00:15:39;3.50;;;3.00;;
69943;SDS011;57257;48.408;-4.498;2023-05-23T00:18:06;3.00;;;0.25;;
69943;SDS011;57257;48.408;-4.498;2023-05-23T00:20:38;0.50;;;0.00;;
69943;SDS011;57257;48.408;-4.498;2023-05-23T00:23:06;1.00;;;1.00;;
69943;SDS011;57257;48.408;-4.498;2023-05-23T00:25:33;2.50;;;0.50;;
69943;SDS011;57257;48.408;-4.498;2023-05-23T00:27:59;0.25;;;0.25;;
69943;SDS011;57257;48.408;-4.498;2023-05-23T00:30:25;3.25;;;1.00;;
69943;SDS011;57257;48.408;-4.498;2023-05-23T00:32:51;0.25;;;0.25;;
69943;SDS011;57257;48.408;-4.498;2023-05-23T00:35:18;1.00;;;1.00;;
69943;SDS011;57257;48.408;-4.498;2023-05-23T00:37:44;7.00;;;1.00;;
69943;SDS011;57257;48.408;-4.498;2023-05-23T00:40:10;1.00;;;0.00;;
69943;SDS011;57257;48.408;-4.498;2023-05-23T00:42:35;0.25;;;0.25;;
69943;SDS011;57257;48.408;-4.498;2023-05-23T00:45:01;2.00;;;2.00;;
69943;SDS011;57257;48.408;-4.498;2023-05-23T00:47:27;0.75;;;0.75;;
69943;SDS011;57257;48.408;-4.498;2023-05-23T00:49:52;1.50;;;1.50;;
69943;SDS011;57257;48.408;-4.498;2023-05-23T00:52:18;1.00;;;1.00;;
69943;SDS011;57257;48.408;-4.498;2023-05-23T00:54:43;4.00;;;0.75;;
69943;SDS011;57257;48.408;-4.498;2023-05-23T00:57:09;1.75;;;1.00;;
69943;SDS011;57257;48.408;-4.498;2023-05-23T00:59:35;3.00;;;3.00;;
69943;SDS011;57257;48.408;-4.498;2023-05-23T01:02:02;1.50;;;1.50;;
69943;SDS011;57257;48.408;-4.498;2023-05-23T01:04:27;3.75;;;3.00;;
69943;SDS011;57257;48.408;-4.498;2023-05-23T01:06:53;4.00;;;2.00;;
69943;SDS011;57257;48.408;-4.498;2023-05-23T01:09:19;1.00;;;1.00;;
69943;SDS011;57257;48.408;-4.498;2023-05-23T01:17:33;1.00;;;1.00;;
69943;SDS011;57257;48.408;-4.498;2023-05-23T01:20:10;1.50;;;1.50;;
69943;SDS011;57257;48.408;-4.498;2023-05-23T01:27:55;0.00;;;0.00;;
69943;SDS011;57257;48.408;-4.498;2023-05-23T01:30:24;0.00;;;0.00;;
69943;SDS011;57257;48.408;-4.498;2023-05-23T01:32:54;1.00;;;1.00;;
69943;SDS011;57257;48.408;-4.498;2023-05-23T01:35:23;1.00;;;0.00;;
69943;SDS011;57257;48.408;-4.498;2023-05-23T01:37:51;4.00;;;3.00;;
69943;SDS011;57257;48.408;-4.498;2023-05-23T01:40:20;2.00;;;1.25;;
69943;SDS011;57257;48.408;-4.498;2023-05-23T01:42:47;1.00;;;1.00;;
69943;SDS011;57257;48.408;-4.498;2023-05-23T01:45:13;3.00;;;1.00;;
69943;SDS011;57257;48.408;-4.498;2023-05-23T01:47:40;1.00;;;1.00;;
69943;SDS011;57257;48.408;-4.498;2023-05-23T01:50:06;0.75;;;0.75;;
69943;SDS011;57257;48.408;-4.498;2023-05-23T01:52:34;2.00;;;2.00;;
69943;SDS011;57257;48.408;-4.498;2023-05-23T01:55:00;0.00;;;0.00;;
69943;SDS011;57257;48.408;-4.498;2023-05-23T01:57:28;0.75;;;0.75;;
69943;SDS011;57257;48.408;-4.498;2023-05-23T01:59:54;4.50;;;1.00;;
69943;SDS011;57257;48.408;-4.498;2023-05-23T02:02:20;2.00;;;2.00;;
69943;SDS011;57257;48.408;-4.498;2023-05-23T02:04:47;3.00;;;0.75;;
69943;SDS011;57257;48.408;-4.498;2023-05-23T02:07:13;3.00;;;1.50;;
69943;SDS011;57257;48.408;-4.498;2023-05-23T02:09:39;2.50;;;1.50;;
69943;SDS011;57257;48.408;-4.498;2023-05-23T02:12:04;3.75;;;1.00;;
69943;SDS011;57257;48.408;-4.498;2023-05-23T02:14:30;3.00;;;2.00;;
69943;SDS011;57257;48.408;-4.498;2023-05-23T02:16:55;1.00;;;1.00;;
69943;SDS011;57257;48.408;-4.498;2023-05-23T02:19:21;4.50;;;1.00;;
69943;SDS011;57257;48.408;-4.498;2023-05-23T02:21:46;2.00;;;2.00;;
69943;SDS011;57257;48.408;-4.498;2023-05-23T02:24:12;7.00;;;2.50;;
69943;SDS011;57257;48.408;-4.498;2023-05-23T02:26:37;0.75;;;0.75;;
69943;SDS011;57257;48.408;-4.498;2023-05-23T02:29:02;2.50;;;1.00;;
69943;SDS011;57257;48.408;-4.498;2023-05-23T02:31:28;2.50;;;1.00;;
69943;SDS011;57257;48.408;-4.498;2023-05-23T02:33:54;1.00;;;1.00;;
69943;SDS011;57257;48.408;-4.498;2023-05-23T02:36:19;3.75;;;1.50;;
69943;SDS011;57257;48.408;-4.498;2023-05-23T02:38:45;0.50;;;0.50;;
69943;SDS011;57257;48.408;-4.498;2023-05-23T02:41:11;4.50;;;1.00;;
69943;SDS011;57257;48.408;-4.498;2023-05-23T02:43:36;1.00;;;1.00;;
69943;SDS011;57257;48.408;-4.498;2023-05-23T02:46:02;3.00;;;2.00;;
69943;SDS011;57257;48.408;-4.498;2023-05-23T02:48:27;2.00;;;2.00;;
69943;SDS011;57257;48.408;-4.498;2023-05-23T02:50:53;4.00;;;4.00;;
69943;SDS011;57257;48.408;-4.498;2023-05-23T02:53:18;3.50;;;3.00;;
69943;SDS011;57257;48.408;-4.498;2023-05-23T02:55:44;1.00;;;1.00;;
69943;SDS011;57257;48.408;-4.498;2023-05-23T02:58:09;0.75;;;0.50;;
69943;SDS011;57257;48.408;-4.498;2023-05-23T03:00:35;4.50;;;3.00;;
69943;SDS011;57257;48.408;-4.498;2023-05-23T03:03:00;1.00;;;1.00;;
69943;SDS011;57257;48.408;-4.498;2023-05-23T03:05:26;5.50;;;3.00;;
69943;SDS011;57257;48.408;-4.498;2023-05-23T03:07:51;3.50;;;3.00;;
69943;SDS011;57257;48.408;-4.498;2023-05-23T03:10:18;4.00;;;3.75;;
69943;SDS011;57257;48.408;-4.498;2023-05-23T03:12:44;3.00;;;3.00;;
69943;SDS011;57257;48.408;-4.498;2023-05-23T03:15:10;0.25;;;0.25;;
69943;SDS011;57257;48.408;-4.498;2023-05-23T03:17:35;3.75;;;1.50;;
69943;SDS011;57257;48.408;-4.498;2023-05-23T03:20:01;4.00;;;2.50;;
69943;SDS011;57257;48.408;-4.498;2023-05-23T03:22:27;2.50;;;2.00;;
69943;SDS011;57257;48.408;-4.498;2023-05-23T03:24:53;1.00;;;1.00;;
69943;SDS011;57257;48.408;-4.498;2023-05-23T03:27:18;2.50;;;2.00;;
69943;SDS011;57257;48.408;-4.498;2023-05-23T03:29:43;2.50;;;1.00;;
69943;SDS011;57257;48.408;-4.498;2023-05-23T03:32:09;3.00;;;0.75;;
69943;SDS011;57257;48.408;-4.498;2023-05-23T03:34:34;3.00;;;3.00;;
69943;SDS011;57257;48.408;-4.498;2023-05-23T03:37:00;3.50;;;3.50;;
69943;SDS011;57257;48.408;-4.498;2023-05-23T03:39:26;5.00;;;1.50;;
69943;SDS011;57257;48.408;-4.498;2023-05-23T03:41:51;3.00;;;3.00;;
69943;SDS011;57257;48.408;-4.498;2023-05-23T03:44:16;3.50;;;1.00;;
69943;SDS011;57257;48.408;-4.498;2023-05-23T03:46:42;1.50;;;1.50;;
69943;SDS011;57257;48.408;-4.498;2023-05-23T03:49:07;3.75;;;2.50;;
69943;SDS011;57257;48.408;-4.498;2023-05-23T03:51:32;1.00;;;1.00;;
69943;SDS011;57257;48.408;-4.498;2023-05-23T03:53:58;1.00;;;1.00;;
69943;SDS011;57257;48.408;-4.498;2023-05-23T03:56:23;6.50;;;4.00;;
69943;SDS011;57257;48.408;-4.498;2023-05-23T03:58:50;1.00;;;1.00;;
69943;SDS011;57257;48.408;-4.498;2023-05-23T04:01:15;4.00;;;3.00;;
69943;SDS011;57257;48.408;-4.498;2023-05-23T04:03:41;4.25;;;3.25;;
69943;SDS011;57257;48.408;-4.498;2023-05-23T04:06:06;1.00;;;1.00;;
69943;SDS011;57257;48.408;-4.498;2023-05-23T04:08:31;3.00;;;3.00;;
69943;SDS011;57257;48.408;-4.498;2023-05-23T04:11:00;3.75;;;3.75;;
69943;SDS011;57257;48.408;-4.498;2023-05-23T04:13:28;2.75;;;2.50;;
69943;SDS011;57257;48.408;-4.498;2023-05-23T04:15:55;2.50;;;2.50;;
69943;SDS011;57257;48.408;-4.498;2023-05-23T04:18:20;4.00;;;4.00;;
69943;SDS011;57257;48.408;-4.498;2023-05-23T04:20:47;4.50;;;4.00;;
69943;SDS011;57257;48.408;-4.498;2023-05-23T04:23:13;4.00;;;3.25;;
69943;SDS011;57257;48.408;-4.498;2023-05-23T04:25:38;3.25;;;3.00;;
69943;SDS011;57257;48.408;-4.498;2023-05-23T04:28:04;6.00;;;3.50;;
69943;SDS011;57257;48.408;-4.498;2023-05-23T04:30:30;4.00;;;3.00;;
69943;SDS011;57257;48.408;-4.498;2023-05-23T04:32:57;5.50;;;4.00;;
69943;SDS011;57257;48.408;-4.498;2023-05-23T04:35:23;3.00;;;3.00;;
69943;SDS011;57257;48.408;-4.498;2023-05-23T04:37:50;3.00;;;3.00;;
69943;SDS011;57257;48.408;-4.498;2023-05-23T04:40:20;3.25;;;3.00;;
69943;SDS011;57257;48.408;-4.498;2023-05-23T04:42:46;4.00;;;4.00;;
69943;SDS011;57257;48.408;-4.498;2023-05-23T04:45:12;3.00;;;3.00;;
69943;SDS011;57257;48.408;-4.498;2023-05-23T04:47:37;6.00;;;4.00;;
69943;SDS011;57257;48.408;-4.498;2023-05-23T04:50:03;3.75;;;3.75;;
69943;SDS011;57257;48.408;-4.498;2023-05-23T04:52:29;7.00;;;3.00;;
69943;SDS011;57257;48.408;-4.498;2023-05-23T04:54:57;3.50;;;3.00;;
69943;SDS011;57257;48.408;-4.498;2023-05-23T04:57:22;5.50;;;5.50;;
69943;SDS011;57257;48.408;-4.498;2023-05-23T04:59:48;6.75;;;4.00;;
69943;SDS011;57257;48.408;-4.498;2023-05-23T05:02:13;4.00;;;4.00;;
69943;SDS011;57257;48.408;-4.498;2023-05-23T05:04:38;3.00;;;3.00;;
69943;SDS011;57257;48.408;-4.498;2023-05-23T05:07:05;7.00;;;6.00;;
69943;SDS011;57257;48.408;-4.498;2023-05-23T05:09:30;4.25;;;3.75;;
69943;SDS011;57257;48.408;-4.498;2023-05-23T05:11:56;6.25;;;6.25;;
69943;SDS011;57257;48.408;-4.498;2023-05-23T05:14:23;6.00;;;3.00;;
69943;SDS011;57257;48.408;-4.498;2023-05-23T05:16:50;6.00;;;5.50;;
69943;SDS011;57257;48.408;-4.498;2023-05-23T05:19:16;3.25;;;2.50;;
69943;SDS011;57257;48.408;-4.498;2023-05-23T05:21:41;5.50;;;4.00;;
69943;SDS011;57257;48.408;-4.498;2023-05-23T05:24:06;3.50;;;3.50;;
69943;SDS011;57257;48.408;-4.498;2023-05-23T05:26:34;4.00;;;3.50;;
69943;SDS011;57257;48.408;-4.498;2023-05-23T05:29:00;4.00;;;4.00;;
69943;SDS011;57257;48.408;-4.498;2023-05-23T05:31:26;4.25;;;4.25;;
69943;SDS011;57257;48.408;-4.498;2023-05-23T05:33:51;3.00;;;3.00;;
69943;SDS011;57257;48.408;-4.498;2023-05-23T05:36:18;4.50;;;4.50;;
69943;SDS011;57257;48.408;-4.498;2023-05-23T05:38:43;6.00;;;6.00;;
69943;SDS011;57257;48.408;-4.498;2023-05-23T05:41:09;4.00;;;4.00;;
69943;SDS011;57257;48.408;-4.498;2023-05-23T05:43:34;4.50;;;3.75;;
69943;SDS011;57257;48.408;-4.498;2023-05-23T05:46:00;3.00;;;3.00;;
69943;SDS011;57257;48.408;-4.498;2023-05-23T05:48:25;9.25;;;4.00;;
69943;SDS011;57257;48.408;-4.498;2023-05-23T05:50:50;13.25;;;6.00;;
69943;SDS011;57257;48.408;-4.498;2023-05-23T05:53:16;4.50;;;4.50;;
69943;SDS011;57257;48.408;-4.498;2023-05-23T05:55:41;6.00;;;3.25;;
69943;SDS011;57257;48.408;-4.498;2023-05-23T05:58:07;7.25;;;4.00;;
69943;SDS011;57257;48.408;-4.498;2023-05-23T06:00:32;4.50;;;3.00;;
69943;SDS011;57257;48.408;-4.498;2023-05-23T06:02:59;3.00;;;3.00;;
69943;SDS011;57257;48.408;-4.498;2023-05-23T06:05:24;5.00;;;4.00;;
69943;SDS011;57257;48.408;-4.498;2023-05-23T06:07:50;6.00;;;3.00;;
69943;SDS011;57257;48.408;-4.498;2023-05-23T06:10:16;3.25;;;3.25;;
69943;SDS011;57257;48.408;-4.498;2023-05-23T06:12:41;7.50;;;7.00;;
69943;SDS011;57257;48.408;-4.498;2023-05-23T06:15:07;6.00;;;3.50;;
69943;SDS011;57257;48.408;-4.498;2023-05-23T06:17:33;9.50;;;6.50;;
69943;SDS011;57257;48.408;-4.498;2023-05-23T06:19:59;10.00;;;4.00;;
69943;SDS011;57257;48.408;-4.498;2023-05-23T06:22:24;6.50;;;4.00;;
69943;SDS011;57257;48.408;-4.498;2023-05-23T06:24:50;6.50;;;4.50;;
69943;SDS011;57257;48.408;-4.498;2023-05-23T06:27:15;6.75;;;5.00;;
69943;SDS011;57257;48.408;-4.498;2023-05-23T06:29:41;3.50;;;3.25;;
69943;SDS011;57257;48.408;-4.498;2023-05-23T06:32:06;3.50;;;3.50;;
69943;SDS011;57257;48.408;-4.498;2023-05-23T06:34:32;9.75;;;9.75;;
69943;SDS011;57257;48.408;-4.498;2023-05-23T06:36:57;7.00;;;6.00;;
69943;SDS011;57257;48.408;-4.498;2023-05-23T06:39:23;7.00;;;7.00;;
69943;SDS011;57257;48.408;-4.498;2023-05-23T06:41:48;7.50;;;6.00;;
69943;SDS011;57257;48.408;-4.498;2023-05-23T06:44:14;6.50;;;6.50;;
69943;SDS011;57257;48.408;-4.498;2023-05-23T06:46:41;7.00;;;6.25;;
69943;SDS011;57257;48.408;-4.498;2023-05-23T06:49:09;7.00;;;7.00;;
69943;SDS011;57257;48.408;-4.498;2023-05-23T06:51:34;4.00;;;4.00;;
69943;SDS011;57257;48.408;-4.498;2023-05-23T06:54:00;4.50;;;4.50;;
69943;SDS011;57257;48.408;-4.498;2023-05-23T06:56:25;5.00;;;5.00;;
69943;SDS011;57257;48.408;-4.498;2023-05-23T06:58:53;6.00;;;4.50;;
69943;SDS011;57257;48.408;-4.498;2023-05-23T07:01:26;4.00;;;4.00;;
69943;SDS011;57257;48.408;-4.498;2023-05-23T07:03:51;6.25;;;4.50;;
69943;SDS011;57257;48.408;-4.498;2023-05-23T07:06:17;7.00;;;6.00;;
69943;SDS011;57257;48.408;-4.498;2023-05-23T07:08:42;4.00;;;4.00;;
69943;SDS011;57257;48.408;-4.498;2023-05-23T07:11:08;10.75;;;5.25;;
69943;SDS011;57257;48.408;-4.498;2023-05-23T07:13:33;7.00;;;6.75;;
69943;SDS011;57257;48.408;-4.498;2023-05-23T07:15:58;11.50;;;6.75;;
69943;SDS011;57257;48.408;-4.498;2023-05-23T07:18:24;24.25;;;19.75;;
69943;SDS011;57257;48.408;-4.498;2023-05-23T07:20:49;10.25;;;6.75;;
69943;SDS011;57257;48.408;-4.498;2023-05-23T07:26:30;7.00;;;6.25;;
69943;SDS011;57257;48.408;-4.498;2023-05-23T07:28:56;6.50;;;4.00;;
69943;SDS011;57257;48.408;-4.498;2023-05-23T07:31:22;10.00;;;6.00;;
69943;SDS011;57257;48.408;-4.498;2023-05-23T07:33:47;7.00;;;6.00;;
69943;SDS011;57257;48.408;-4.498;2023-05-23T07:36:12;5.50;;;4.00;;
69943;SDS011;57257;48.408;-4.498;2023-05-23T07:38:38;5.25;;;4.00;;
69943;SDS011;57257;48.408;-4.498;2023-05-23T07:41:03;7.00;;;5.00;;
69943;SDS011;57257;48.408;-4.498;2023-05-23T07:43:29;8.50;;;6.75;;
69943;SDS011;57257;48.408;-4.498;2023-05-23T07:45:54;6.00;;;6.00;;
69943;SDS011;57257;48.408;-4.498;2023-05-23T07:48:20;9.00;;;6.50;;
69943;SDS011;57257;48.408;-4.498;2023-05-23T07:50:45;9.50;;;6.00;;
69943;SDS011;57257;48.408;-4.498;2023-05-23T07:53:11;5.75;;;3.75;;
69943;SDS011;57257;48.408;-4.498;2023-05-23T07:55:37;4.75;;;4.75;;
69943;SDS011;57257;48.408;-4.498;2023-05-23T07:58:11;3.75;;;0.50;;
69943;SDS011;57257;48.408;-4.498;2023-05-23T08:00:38;3.50;;;3.50;;
69943;SDS011;57257;48.408;-4.498;2023-05-23T08:03:05;7.00;;;7.00;;
69943;SDS011;57257;48.408;-4.498;2023-05-23T08:05:31;4.00;;;4.00;;
69943;SDS011;57257;48.408;-4.498;2023-05-23T08:08:01;6.00;;;6.00;;
69943;SDS011;57257;48.408;-4.498;2023-05-23T08:10:36;7.00;;;3.00;;
69943;SDS011;57257;48.408;-4.498;2023-05-23T08:13:19;6.75;;;4.00;;
69943;SDS011;57257;48.408;-4.498;2023-05-23T08:15:44;7.00;;;4.00;;
69943;SDS011;57257;48.408;-4.498;2023-05-23T08:18:10;3.75;;;3.00;;
69943;SDS011;57257;48.408;-4.498;2023-05-23T08:20:36;3.50;;;3.50;;
69943;SDS011;57257;48.408;-4.498;2023-05-23T08:23:01;5.50;;;4.50;;
69943;SDS011;57257;48.408;-4.498;2023-05-23T08:25:28;3.50;;;3.50;;
69943;SDS011;57257;48.408;-4.498;2023-05-23T08:28:06;4.00;;;4.00;;
69943;SDS011;57257;48.408;-4.498;2023-05-23T08:30:33;2.25;;;2.25;;
69943;SDS011;57257;48.408;-4.498;2023-05-23T08:32:59;1.00;;;1.00;;
69943;SDS011;57257;48.408;-4.498;2023-05-23T08:35:28;4.00;;;4.00;;
69943;SDS011;57257;48.408;-4.498;2023-05-23T08:37:59;3.00;;;3.00;;
69943;SDS011;57257;48.408;-4.498;2023-05-23T08:40:25;10.00;;;6.00;;
69943;SDS011;57257;48.408;-4.498;2023-05-23T08:42:53;6.00;;;3.75;;
69943;SDS011;57257;48.408;-4.498;2023-05-23T08:45:19;4.00;;;3.00;;
69943;SDS011;57257;48.408;-4.498;2023-05-23T08:48:02;5.25;;;4.00;;
69943;SDS011;57257;48.408;-4.498;2023-05-23T08:50:34;6.50;;;5.50;;
69943;SDS011;57257;48.408;-4.498;2023-05-23T08:53:03;8.00;;;8.00;;
69943;SDS011;57257;48.408;-4.498;2023-05-23T08:55:32;6.00;;;4.50;;
69943;SDS011;57257;48.408;-4.498;2023-05-23T08:57:58;3.50;;;2.50;;
69943;SDS011;57257;48.408;-4.498;2023-05-23T09:00:24;4.50;;;3.75;;
69943;SDS011;57257;48.408;-4.498;2023-05-23T09:02:50;3.25;;;3.25;;
69943;SDS011;57257;48.408;-4.498;2023-05-23T09:05:16;4.50;;;3.00;;
69943;SDS011;57257;48.408;-4.498;2023-05-23T09:07:42;4.00;;;4.00;;
69943;SDS011;57257;48.408;-4.498;2023-05-23T09:10:13;3.75;;;3.75;;
69943;SDS011;57257;48.408;-4.498;2023-05-23T09:12:41;5.50;;;4.00;;
69943;SDS011;57257;48.408;-4.498;2023-05-23T09:15:07;6.00;;;6.00;;
69943;SDS011;57257;48.408;-4.498;2023-05-23T09:17:33;4.00;;;3.00;;
69943;SDS011;57257;48.408;-4.498;2023-05-23T09:20:00;2.00;;;2.00;;
69943;SDS011;57257;48.408;-4.498;2023-05-23T09:22:26;6.00;;;3.00;;
69943;SDS011;57257;48.408;-4.498;2023-05-23T09:24:55;6.25;;;3.00;;
69943;SDS011;57257;48.408;-4.498;2023-05-23T09:30:17;4.00;;;2.50;;
69943;SDS011;57257;48.408;-4.498;2023-05-23T09:32:42;4.00;;;4.00;;
69943;SDS011;57257;48.408;-4.498;2023-05-23T09:35:22;1.50;;;1.50;;
69943;SDS011;57257;48.408;-4.498;2023-05-23T09:37:48;4.50;;;4.50;;
69943;SDS011;57257;48.408;-4.498;2023-05-23T09:40:13;4.00;;;4.00;;
69943;SDS011;57257;48.408;-4.498;2023-05-23T09:45:12;6.25;;;4.00;;
69943;SDS011;57257;48.408;-4.498;2023-05-23T09:47:38;3.75;;;3.75;;
69943;SDS011;57257;48.408;-4.498;2023-05-23T09:50:12;3.75;;;3.75;;
69943;SDS011;57257;48.408;-4.498;2023-05-23T09:52:38;5.50;;;3.75;;
69943;SDS011;57257;48.408;-4.498;2023-05-23T09:55:04;5.00;;;3.00;;
69943;SDS011;57257;48.408;-4.498;2023-05-23T09:57:30;5.50;;;4.00;;
69943;SDS011;57257;48.408;-4.498;2023-05-23T09:59:59;4.00;;;4.00;;
69943;SDS011;57257;48.408;-4.498;2023-05-23T10:05:39;5.50;;;5.50;;
69943;SDS011;57257;48.408;-4.498;2023-05-23T10:08:13;6.25;;;4.00;;
69943;SDS011;57257;48.408;-4.498;2023-05-23T10:13:40;10.50;;;10.00;;
69943;SDS011;57257;48.408;-4.498;2023-05-23T10:16:14;6.50;;;6.50;;
69943;SDS011;57257;48.408;-4.498;2023-05-23T10:18:44;3.25;;;3.00;;
69943;SDS011;57257;48.408;-4.498;2023-05-23T10:21:39;3.00;;;3.00;;
69943;SDS011;57257;48.408;-4.498;2023-05-23T10:24:10;4.00;;;3.50;;
69943;SDS011;57257;48.408;-4.498;2023-05-23T10:26:37;3.00;;;3.00;;
69943;SDS011;57257;48.408;-4.498;2023-05-23T10:29:02;9.75;;;5.00;;
69943;SDS011;57257;48.408;-4.498;2023-05-23T10:31:29;3.25;;;3.25;;
69943;SDS011;57257;48.408;-4.498;2023-05-23T10:33:57;3.00;;;3.00;;
69943;SDS011;57257;48.408;-4.498;2023-05-23T10:36:32;4.00;;;3.00;;
69943;SDS011;57257;48.408;-4.498;2023-05-23T10:39:15;3.00;;;3.00;;
69943;SDS011;57257;48.408;-4.498;2023-05-23T10:42:06;5.50;;;3.25;;
69943;SDS011;57257;48.408;-4.498;2023-05-23T10:44:37;2.00;;;2.00;;
69943;SDS011;57257;48.408;-4.498;2023-05-23T10:47:02;3.25;;;3.25;;
69943;SDS011;57257;48.408;-4.498;2023-05-23T10:52:07;6.00;;;4.00;;
69943;SDS011;57257;48.408;-4.498;2023-05-23T10:54:50;4.00;;;1.50;;
69943;SDS011;57257;48.408;-4.498;2023-05-23T10:57:19;2.00;;;1.50;;
69943;SDS011;57257;48.408;-4.498;2023-05-23T10:59:55;7.50;;;6.75;;
69943;SDS011;57257;48.408;-4.498;2023-05-23T11:05:51;3.25;;;3.25;;
69943;SDS011;57257;48.408;-4.498;2023-05-23T11:08:18;3.75;;;3.50;;
69943;SDS011;57257;48.408;-4.498;2023-05-23T11:11:00;3.00;;;3.00;;
69943;SDS011;57257;48.408;-4.498;2023-05-23T11:18:51;2.50;;;2.50;;
69943;SDS011;57257;48.408;-4.498;2023-05-23T11:21:21;3.25;;;3.25;;
69943;SDS011;57257;48.408;-4.498;2023-05-23T11:23:47;6.00;;;3.50;;
69943;SDS011;57257;48.408;-4.498;2023-05-23T11:26:28;2.50;;;2.50;;
69943;SDS011;57257;48.408;-4.498;2023-05-23T11:28:55;3.25;;;3.25;;
69943;SDS011;57257;48.408;-4.498;2023-05-23T11:31:21;5.50;;;5.50;;
69943;SDS011;57257;48.408;-4.498;2023-05-23T11:33:49;3.50;;;3.00;;
69943;SDS011;57257;48.408;-4.498;2023-05-23T11:36:15;2.50;;;2.50;;
69943;SDS011;57257;48.408;-4.498;2023-05-23T11:38:41;5.50;;;3.00;;
69943;SDS011;57257;48.408;-4.498;2023-05-23T11:41:06;3.50;;;3.50;;
69943;SDS011;57257;48.408;-4.498;2023-05-23T11:43:32;1.50;;;0.75;;
69943;SDS011;57257;48.408;-4.498;2023-05-23T11:46:06;2.50;;;2.50;;
69943;SDS011;57257;48.408;-4.498;2023-05-23T11:48:32;1.75;;;1.00;;
69943;SDS011;57257;48.408;-4.498;2023-05-23T11:50:58;3.00;;;2.00;;
69943;SDS011;57257;48.408;-4.498;2023-05-23T11:53:25;1.00;;;1.00;;
69943;SDS011;57257;48.408;-4.498;2023-05-23T11:55:55;4.00;;;2.50;;
69943;SDS011;57257;48.408;-4.498;2023-05-23T11:58:27;2.00;;;2.00;;
69943;SDS011;57257;48.408;-4.498;2023-05-23T12:03:48;1.00;;;1.00;;
69943;SDS011;57257;48.408;-4.498;2023-05-23T12:06:18;1.00;;;1.00;;
69943;SDS011;57257;48.408;-4.498;2023-05-23T12:08:45;1.00;;;1.00;;
69943;SDS011;57257;48.408;-4.498;2023-05-23T12:11:11;0.25;;;0.25;;
69943;SDS011;57257;48.408;-4.498;2023-05-23T12:13:39;1.00;;;1.00;;
69943;SDS011;57257;48.408;-4.498;2023-05-23T12:16:06;4.00;;;3.00;;
69943;SDS011;57257;48.408;-4.498;2023-05-23T12:18:32;2.50;;;2.50;;
69943;SDS011;57257;48.408;-4.498;2023-05-23T12:21:01;1.00;;;1.00;;
69943;SDS011;57257;48.408;-4.498;2023-05-23T12:23:27;1.00;;;1.00;;
69943;SDS011;57257;48.408;-4.498;2023-05-23T12:25:54;1.00;;;1.00;;
69943;SDS011;57257;48.408;-4.498;2023-05-23T12:28:22;1.00;;;1.00;;
69943;SDS011;57257;48.408;-4.498;2023-05-23T12:31:07;1.50;;;1.50;;
69943;SDS011;57257;48.408;-4.498;2023-05-23T12:34:02;1.00;;;1.00;;
69943;SDS011;57257;48.408;-4.498;2023-05-23T12:36:28;1.00;;;1.00;;
69943;SDS011;57257;48.408;-4.498;2023-05-23T12:39:00;1.00;;;1.00;;
69943;SDS011;57257;48.408;-4.498;2023-05-23T12:41:27;1.00;;;1.00;;
69943;SDS011;57257;48.408;-4.498;2023-05-23T12:43:53;1.00;;;1.00;;
69943;SDS011;57257;48.408;-4.498;2023-05-23T12:46:20;1.00;;;1.00;;
69943;SDS011;57257;48.408;-4.498;2023-05-23T12:48:47;1.00;;;1.00;;
69943;SDS011;57257;48.408;-4.498;2023-05-23T12:51:12;4.00;;;1.00;;
69943;SDS011;57257;48.408;-4.498;2023-05-23T12:53:38;0.00;;;0.00;;
69943;SDS011;57257;48.408;-4.498;2023-05-23T12:56:04;2.50;;;2.50;;
69943;SDS011;57257;48.408;-4.498;2023-05-23T12:58:29;3.00;;;3.00;;
69943;SDS011;57257;48.408;-4.498;2023-05-23T13:00:56;5.00;;;3.00;;
69943;SDS011;57257;48.408;-4.498;2023-05-23T13:03:21;1.00;;;1.00;;
69943;SDS011;57257;48.408;-4.498;2023-05-23T13:05:47;3.75;;;2.00;;
69943;SDS011;57257;48.408;-4.498;2023-05-23T13:08:12;6.00;;;3.00;;
69943;SDS011;57257;48.408;-4.498;2023-05-23T13:10:38;1.00;;;1.00;;
69943;SDS011;57257;48.408;-4.498;2023-05-23T13:13:04;3.00;;;3.00;;
69943;SDS011;57257;48.408;-4.498;2023-05-23T13:15:29;3.00;;;3.00;;
69943;SDS011;57257;48.408;-4.498;2023-05-23T13:17:55;3.00;;;3.00;;
69943;SDS011;57257;48.408;-4.498;2023-05-23T13:20:21;5.25;;;3.25;;
69943;SDS011;57257;48.408;-4.498;2023-05-23T13:22:46;4.00;;;3.00;;
69943;SDS011;57257;48.408;-4.498;2023-05-23T13:25:12;3.00;;;3.00;;
69943;SDS011;57257;48.408;-4.498;2023-05-23T13:27:37;4.50;;;4.00;;
69943;SDS011;57257;48.408;-4.498;2023-05-23T13:30:03;6.25;;;3.75;;
69943;SDS011;57257;48.408;-4.498;2023-05-23T13:32:30;5.00;;;4.50;;
69943;SDS011;57257;48.408;-4.498;2023-05-23T13:34:56;7.50;;;4.00;;
69943;SDS011;57257;48.408;-4.498;2023-05-23T13:37:21;6.00;;;6.00;;
69943;SDS011;57257;48.408;-4.498;2023-05-23T13:39:47;4.50;;;4.50;;
69943;SDS011;57257;48.408;-4.498;2023-05-23T13:42:12;7.00;;;5.00;;
69943;SDS011;57257;48.408;-4.498;2023-05-23T13:44:38;4.75;;;4.00;;
69943;SDS011;57257;48.408;-4.498;2023-05-23T13:47:10;9.25;;;6.00;;
69943;SDS011;57257;48.408;-4.498;2023-05-23T13:49:37;8.00;;;6.75;;
69943;SDS011;57257;48.408;-4.498;2023-05-23T13:52:02;6.00;;;6.00;;
69943;SDS011;57257;48.408;-4.498;2023-05-23T13:54:28;6.00;;;4.00;;
69943;SDS011;57257;48.408;-4.498;2023-05-23T13:56:53;6.75;;;3.25;;
69943;SDS011;57257;48.408;-4.498;2023-05-23T13:59:19;6.00;;;5.00;;
69943;SDS011;57257;48.408;-4.498;2023-05-23T14:01:48;8.00;;;6.00;;
69943;SDS011;57257;48.408;-4.498;2023-05-23T14:04:13;6.25;;;3.25;;
69943;SDS011;57257;48.408;-4.498;2023-05-23T14:06:39;8.50;;;5.50;;
69943;SDS011;57257;48.408;-4.498;2023-05-23T14:09:05;13.00;;;8.50;;
69943;SDS011;57257;48.408;-4.498;2023-05-23T14:11:31;10.00;;;6.00;;
69943;SDS011;57257;48.408;-4.498;2023-05-23T14:13:57;9.25;;;7.50;;
69943;SDS011;57257;48.408;-4.498;2023-05-23T14:16:22;7.00;;;6.00;;
69943;SDS011;57257;48.408;-4.498;2023-05-23T14:18:48;4.75;;;4.50;;
69943;SDS011;57257;48.408;-4.498;2023-05-23T14:21:13;4.00;;;4.00;;
69943;SDS011;57257;48.408;-4.498;2023-05-23T14:23:38;5.00;;;5.00;;
69943;SDS011;57257;48.408;-4.498;2023-05-23T14:26:04;12.25;;;6.00;;
69943;SDS011;57257;48.408;-4.498;2023-05-23T14:28:30;3.50;;;3.50;;
69943;SDS011;57257;48.408;-4.498;2023-05-23T14:30:55;8.50;;;6.25;;
69943;SDS011;57257;48.408;-4.498;2023-05-23T14:33:21;6.75;;;6.75;;
69943;SDS011;57257;48.408;-4.498;2023-05-23T14:35:46;3.75;;;3.75;;
69943;SDS011;57257;48.408;-4.498;2023-05-23T14:38:12;9.00;;;6.00;;
69943;SDS011;57257;48.408;-4.498;2023-05-23T14:40:37;6.00;;;6.00;;
69943;SDS011;57257;48.408;-4.498;2023-05-23T14:43:03;4.00;;;4.00;;
69943;SDS011;57257;48.408;-4.498;2023-05-23T14:45:29;6.25;;;6.25;;
69943;SDS011;57257;48.408;-4.498;2023-05-23T14:47:55;12.00;;;6.75;;
69943;SDS011;57257;48.408;-4.498;2023-05-23T14:50:20;7.00;;;6.00;;
69943;SDS011;57257;48.408;-4.498;2023-05-23T14:52:46;13.00;;;9.00;;
69943;SDS011;57257;48.408;-4.498;2023-05-23T14:55:11;4.50;;;3.25;;
69943;SDS011;57257;48.408;-4.498;2023-05-23T14:57:37;7.00;;;6.00;;
69943;SDS011;57257;48.408;-4.498;2023-05-23T15:00:03;4.00;;;4.00;;
69943;SDS011;57257;48.408;-4.498;2023-05-23T15:02:30;7.25;;;6.00;;
69943;SDS011;57257;48.408;-4.498;2023-05-23T15:08:04;10.50;;;3.75;;
69943;SDS011;57257;48.408;-4.498;2023-05-23T15:10:30;9.50;;;6.00;;
69943;SDS011;57257;48.408;-4.498;2023-05-23T15:12:55;8.25;;;3.50;;
69943;SDS011;57257;48.408;-4.498;2023-05-23T15:15:21;10.00;;;7.00;;